INFORMAÇÕES METEOROLÓGICAS
METAR FOR SBDN
ADDS - METARS form results

(1215 UTC 18 July 2019)
Data provider http://aviationweather.gov/metar/data/
 
Forecast for: SBDN (PRESIDENTE PRUDE, BR)
Text: TAF SBDN 180200Z 1806/1818 11012KT CAVOK TN10/1809Z TX23/1818Z RMK PDW
Forecast period: 0600 to 1800 UTC 18 July 2019
Forecast type: FROM: standard forecast or significant change
Winds: from the ESE (110 degrees) at 14 MPH (12 knots; 6.2 m/s)
Visibility: 6 or more miles 10+ km)
Ceiling: unknown
Clouds: missing
Weather: no significant weather forecast for this period

 MAPA DO AEROPORTO

 INFORMAÇÕES DA PISTA
Pista 12 Tamanho da pista 6923 ft Largura da pista 115 ft
Elevação da pista 0 ft Ranhura da pista 0 ft Proa da pista 0
Pista 30 Tamanho da pista 6923 ft Largura da pista 115 ft
Elevação da pista 0 ft Ranhura da pista 0 ft Proa da pista 0

 FREQUÊNCIAS DO AEROPORTO
Tipo AFIS Nome PRUDENTE R Frequência 118.45 MHZ
Tipo APP Nome PRUDENTE A Frequência 118.45 MHZ
Tipo TWR Nome PRUDENTE T Frequência 118.45 MHZ

 AUXÍLIOS DE NAVEGAÇÃO PRÓXIMOS AO AEROPORTO
Tipo VOR-DME Nome Prudente Frequência 113500 KHZ
Tipo NDB Nome Prudente Frequência 225 KHZ





Powered by Virtual Airlines Manager [v2.6.2]